createdAt,value
2017-03-18T00:01:10.833Z,82.475
2017-03-18T00:04:16.228Z,82.367
2017-03-18T00:07:15.834Z,82.527
2017-03-18T00:10:27.140Z,82.505
2017-03-18T00:13:32.146Z,82.793
2017-03-18T00:16:37.061Z,82.565
2017-03-18T00:19:42.190Z,82.716
2017-03-18T00:22:47.327Z,82.714
2017-03-18T00:25:52.615Z,82.670
2017-03-18T00:28:57.286Z,82.863
2017-03-18T00:35:07.802Z,82.552
2017-03-18T00:38:12.689Z,82.392
2017-03-18T00:44:23.692Z,82.134
2017-03-18T00:47:29.846Z,81.901
2017-03-18T00:50:30.212Z,81.813
2017-03-18T00:53:27.680Z,81.802
2017-03-18T00:59:46.216Z,81.756
2017-03-18T01:02:51.514Z,82.138
2017-03-18T01:05:59.675Z,82.779
2017-03-18T01:09:00.809Z,82.401
2017-03-18T01:12:02.562Z,82.858
2017-03-18T01:15:06.925Z,83.065
2017-03-18T01:21:05.079Z,84.310
2017-03-18T01:24:18.563Z,84.278
2017-03-18T01:27:23.440Z,84.591
2017-03-18T01:30:28.803Z,84.766
2017-03-18T01:36:30.553Z,85.209
2017-03-18T01:39:44.008Z,86.616
2017-03-18T01:42:40.991Z,86.724
2017-03-18T01:45:55.177Z,87.302
2017-03-18T01:48:59.859Z,87.043
2017-03-18T01:52:03.244Z,87.522
2017-03-18T01:55:08.479Z,87.362
2017-03-18T01:58:13.032Z,87.096
2017-03-18T02:01:17.736Z,87.930
2017-03-18T02:04:14.888Z,88.375
2017-03-18T02:07:29.043Z,87.886
2017-03-18T02:10:32.632Z,88.211
2017-03-18T02:13:37.682Z,89.055
2017-03-18T02:16:42.689Z,88.396
2017-03-18T02:19:46.691Z,88.084
2017-03-18T02:22:52.663Z,87.875
2017-03-18T02:53:37.947Z,89.025
2017-03-18T02:59:46.668Z,89.910
2017-03-18T03:02:46.868Z,89.645
2017-03-18T03:08:57.609Z,89.378
2017-03-18T03:12:02.593Z,89.158
2017-03-18T03:15:07.326Z,89.003
2017-03-18T03:18:13.701Z,90.090
2017-03-18T03:21:16.120Z,89.253
2017-03-18T03:24:20.252Z,89.153
2017-03-18T03:30:29.167Z,89.044
2017-03-18T03:33:34.381Z,89.784
2017-03-18T03:36:33.400Z,90.050
2017-03-18T03:39:44.742Z,89.460
2017-03-18T03:42:41.598Z,89.670
2017-03-18T03:45:56.076Z,89.647
2017-03-18T03:48:55.182Z,89.973
2017-03-18T03:52:05.197Z,90.286
2017-03-18T03:58:15.312Z,89.207
2017-03-18T04:01:20.772Z,89.276
2017-03-18T04:04:25.893Z,90.213
2017-03-18T04:07:30.239Z,90.164
2017-03-18T04:10:34.610Z,90.687
2017-03-18T04:13:33.098Z,90.533
2017-03-18T04:16:38.075Z,90.441
2017-03-18T04:22:54.327Z,90.515
2017-03-18T04:25:59.419Z,90.277
2017-03-18T04:29:03.956Z,89.717
2017-03-18T04:32:08.995Z,90.716
2017-03-18T04:35:14.062Z,90.040
2017-03-18T04:38:11.350Z,90.708
2017-03-18T04:41:25.406Z,90.385
2017-03-18T04:44:24.226Z,90.582
2017-03-18T04:50:43.879Z,90.528
2017-03-18T04:53:43.292Z,90.622
2017-03-18T04:56:47.021Z,90.983
2017-03-18T04:59:50.460Z,90.324
2017-03-18T05:02:58.256Z,89.893
2017-03-18T05:05:59.314Z,90.029
2017-03-18T05:09:03.401Z,90.513
2017-03-18T05:12:07.671Z,90.532
2017-03-18T05:15:12.539Z,90.141
2017-03-18T05:18:17.404Z,90.329
2017-03-18T05:21:22.597Z,90.291
2017-03-18T05:27:24.215Z,89.939
2017-03-18T05:30:40.284Z,90.711
2017-03-18T05:33:32.550Z,90.650
2017-03-18T05:36:45.852Z,91.064
2017-03-18T05:42:55.781Z,91.231
2017-03-18T05:45:52.300Z,91.171
2017-03-18T05:49:05.627Z,91.650
2017-03-18T05:52:04.728Z,91.774
2017-03-18T05:55:16.258Z,91.828
2017-03-18T05:58:21.286Z,92.026
2017-03-18T06:07:30.813Z,92.713
2017-03-18T06:10:41.952Z,92.460
2017-03-18T06:13:47.116Z,92.624
2017-03-18T06:16:45.789Z,92.592
2017-03-18T06:19:57.271Z,92.811
2017-03-18T06:26:06.066Z,93.363
2017-03-18T06:29:10.847Z,93.504
2017-03-18T06:32:14.154Z,93.851
2017-03-18T06:35:19.208Z,93.740
2017-03-18T06:38:23.900Z,93.962
2017-03-18T06:41:29.282Z,93.948
2017-03-18T06:44:33.078Z,94.190
2017-03-18T06:47:38.858Z,94.250
2017-03-18T06:50:42.881Z,94.229
2017-03-18T06:53:47.201Z,94.493
2017-03-18T06:56:52.421Z,94.745
2017-03-18T06:59:56.820Z,94.581
2017-03-18T07:06:06.967Z,95.125
2017-03-18T07:12:17.640Z,95.571
2017-03-18T07:18:27.763Z,95.965
2017-03-18T07:24:31.299Z,96.277
2017-03-18T07:27:44.261Z,96.602
2017-03-18T07:30:37.867Z,96.581
2017-03-18T07:33:51.066Z,96.742
2017-03-18T07:36:56.214Z,96.882
2017-03-18T07:40:01.506Z,96.941
2017-03-18T07:42:59.089Z,96.952
2017-03-18T07:46:11.991Z,97.010
2017-03-18T07:49:17.327Z,96.813
2017-03-18T07:52:15.604Z,96.868
2017-03-18T07:55:28.341Z,97.055
2017-03-18T07:58:33.460Z,97.240
2017-03-18T08:01:32.741Z,97.301
2017-03-18T08:04:43.347Z,97.228
2017-03-18T08:10:53.336Z,97.360
2017-03-18T08:13:58.214Z,97.410
2017-03-18T08:17:03.597Z,97.374
2017-03-18T08:20:08.647Z,97.382
2017-03-18T08:23:13.520Z,97.503
2017-03-18T08:26:18.556Z,97.541
2017-03-18T08:29:23.055Z,97.455
2017-03-18T08:32:29.207Z,97.471
2017-03-18T08:35:32.212Z,97.101
2017-03-18T08:38:37.438Z,96.945
2017-03-18T08:41:36.750Z,96.909
2017-03-18T08:44:48.497Z,97.378
2017-03-18T08:47:53.617Z,97.382
2017-03-18T08:50:51.149Z,97.334
2017-03-18T08:54:03.743Z,97.270
2017-03-18T08:57:09.185Z,96.942
2017-03-18T09:09:21.703Z,95.453
2017-03-18T09:12:35.256Z,95.130
2017-03-18T09:15:40.096Z,93.731
2017-03-18T09:18:45.500Z,93.973
2017-03-18T09:31:02.835Z,93.640
2017-03-18T09:34:07.680Z,93.712
2017-03-18T09:37:12.417Z,93.247
2017-03-18T09:40:17.667Z,92.414
2017-03-18T09:43:23.049Z,92.094
2017-03-18T09:46:28.220Z,91.392
2017-03-18T09:49:25.546Z,91.883
2017-03-18T09:52:31.400Z,91.721
2017-03-18T09:55:44.200Z,92.523
2017-03-18T09:58:49.394Z,92.157
2017-03-18T10:01:54.409Z,92.221
2017-03-18T10:04:52.003Z,93.194
2017-03-18T10:07:58.039Z,92.721
2017-03-18T10:14:16.757Z,91.791
2017-03-18T10:17:21.354Z,91.688
2017-03-18T10:20:18.759Z,91.749
2017-03-18T10:23:32.295Z,92.411
2017-03-18T10:26:37.222Z,92.860
2017-03-18T10:29:42.248Z,92.520
2017-03-18T10:32:48.911Z,93.256
2017-03-18T10:35:43.992Z,93.803
2017-03-18T10:38:57.169Z,92.952
2017-03-18T10:42:01.984Z,92.316
2017-03-18T10:45:06.529Z,90.911
2017-03-18T10:48:12.492Z,91.055
2017-03-18T10:51:10.022Z,90.980
2017-03-18T10:54:23.686Z,90.280
2017-03-18T10:57:22.872Z,90.618
2017-03-18T11:00:34.083Z,89.882
2017-03-18T11:03:39.371Z,90.025
2017-03-18T11:06:36.874Z,90.427
2017-03-18T11:09:50.754Z,88.677
2017-03-18T11:21:57.780Z,86.760
2017-03-18T11:40:30.698Z,80.975
2017-03-18T11:55:55.502Z,79.192
2017-03-18T12:17:19.913Z,76.744
2017-03-18T12:23:32.825Z,76.389
2017-03-18T12:26:37.515Z,77.693
2017-03-18T12:29:36.710Z,76.836
2017-03-18T12:32:50.487Z,76.964
2017-03-18T12:35:45.325Z,76.888
2017-03-18T12:45:01.440Z,77.190
2017-03-18T12:48:06.747Z,77.496
2017-03-18T12:51:19.162Z,77.255
2017-03-18T12:57:24.904Z,76.821
2017-03-18T13:00:27.009Z,76.029
2017-03-18T13:19:07.577Z,65.940
2017-03-18T13:22:06.335Z,64.581
2017-03-18T13:25:14.701Z,65.557
2017-03-18T13:31:16.408Z,65.627
2017-03-18T13:34:27.089Z,64.973
2017-03-18T13:37:32.331Z,64.794
2017-03-18T13:40:37.878Z,64.859
2017-03-18T13:43:43.380Z,64.498
2017-03-18T13:46:48.723Z,62.917
2017-03-18T13:49:54.142Z,64.306
2017-03-18T13:52:59.460Z,64.198
2017-03-18T13:55:58.941Z,65.522
2017-03-18T13:59:10.736Z,66.327
2017-03-18T14:02:15.659Z,66.473
2017-03-18T14:11:25.965Z,66.906
2017-03-18T14:14:37.766Z,67.228
2017-03-18T14:17:43.210Z,68.504
2017-03-18T14:20:48.140Z,69.629
2017-03-18T14:23:53.374Z,69.295
2017-03-18T14:33:09.921Z,66.628
2017-03-18T14:36:15.304Z,66.470
2017-03-18T14:39:20.883Z,63.690
2017-03-18T14:42:26.622Z,65.239
2017-03-18T14:45:32.239Z,63.624
2017-03-18T14:48:37.843Z,62.397
2017-03-18T14:51:43.370Z,63.181
2017-03-18T14:54:41.090Z,62.748
2017-03-18T14:57:54.741Z,62.559
2017-03-18T15:00:59.971Z,63.478
2017-03-18T15:04:05.175Z,63.102
2017-03-18T15:07:10.630Z,62.834
2017-03-18T15:10:16.086Z,62.806
2017-03-18T15:16:19.908Z,63.165
2017-03-18T15:22:39.300Z,62.794
2017-03-18T15:25:36.909Z,61.555
2017-03-18T15:28:50.631Z,61.870
2017-03-18T15:31:48.494Z,62.170
2017-03-18T15:34:56.142Z,60.219
2017-03-18T15:38:08.050Z,61.166
2017-03-18T15:41:11.488Z,60.445
2017-03-18T15:50:26.481Z,59.927
2017-03-18T15:53:31.428Z,59.833
2017-03-18T15:56:29.397Z,61.030
2017-03-18T15:59:42.528Z,60.080
2017-03-18T16:02:41.290Z,61.273
2017-03-18T16:05:55.476Z,60.645
2017-03-18T16:15:07.480Z,60.642
2017-03-18T16:18:12.398Z,60.904
2017-03-18T16:21:17.874Z,61.086
2017-03-18T16:24:22.790Z,61.101
2017-03-18T16:27:28.133Z,60.272
2017-03-18T16:30:25.501Z,58.425
2017-03-18T16:33:39.035Z,59.704
2017-03-18T16:36:38.372Z,59.173
2017-03-18T16:39:50.008Z,59.620
2017-03-18T16:42:48.424Z,60.026
2017-03-18T16:46:01.293Z,60.283
2017-03-18T16:49:06.252Z,60.537
2017-03-18T16:52:11.656Z,60.937
2017-03-18T16:55:16.378Z,61.952
2017-03-18T16:58:21.726Z,61.778
2017-03-18T17:01:26.850Z,62.131
2017-03-18T17:04:32.264Z,62.380
2017-03-18T17:07:38.291Z,62.703
2017-03-18T17:10:42.313Z,63.130
2017-03-18T17:13:47.862Z,62.395
2017-03-18T17:16:52.797Z,62.057
2017-03-18T17:23:04.583Z,62.169
2017-03-18T17:26:08.354Z,62.313
2017-03-18T17:29:12.975Z,63.156
2017-03-18T17:32:17.897Z,61.773
2017-03-18T17:35:22.661Z,62.468
2017-03-18T17:38:19.863Z,62.896
2017-03-18T17:41:33.317Z,63.047
2017-03-18T17:44:32.519Z,63.030
2017-03-18T17:47:44.209Z,63.436
2017-03-18T17:50:49.305Z,64.010
2017-03-18T17:53:46.900Z,64.477
2017-03-18T17:57:01.312Z,64.556
2017-03-18T18:00:05.507Z,65.326
2017-03-18T18:03:10.206Z,65.340
2017-03-18T18:06:15.399Z,65.824
2017-03-18T18:09:20.595Z,65.646
2017-03-18T18:15:32.601Z,65.991
2017-03-18T18:18:34.075Z,65.772
2017-03-18T18:21:38.816Z,65.722
2017-03-18T18:24:38.699Z,66.307
2017-03-18T18:27:49.352Z,66.319
2017-03-18T18:30:54.592Z,66.339
2017-03-18T18:33:51.924Z,66.947
2017-03-18T18:37:06.543Z,67.026
2017-03-18T18:40:10.211Z,66.934
2017-03-18T18:43:15.558Z,67.534
2017-03-18T18:46:20.486Z,66.836
2017-03-18T18:49:25.770Z,67.449
2017-03-18T18:55:36.084Z,67.802
2017-03-18T18:58:41.113Z,67.898
2017-03-18T19:01:46.312Z,68.246
2017-03-18T19:04:50.889Z,68.527
2017-03-18T19:07:53.853Z,68.727
2017-03-18T19:10:52.099Z,69.020
2017-03-18T19:14:05.310Z,69.053
2017-03-18T19:17:08.901Z,69.380
2017-03-18T19:20:14.083Z,69.941
2017-03-18T19:26:23.143Z,70.042
2017-03-18T19:29:20.697Z,70.445
2017-03-18T19:32:26.226Z,70.311
2017-03-18T19:35:33.760Z,70.630
2017-03-18T19:38:39.584Z,70.625
2017-03-18T19:41:51.020Z,70.434
2017-03-18T19:44:48.430Z,71.020
2017-03-18T19:48:01.861Z,70.964
2017-03-18T19:51:01.133Z,70.954
2017-03-18T19:54:12.573Z,71.107
2017-03-18T19:57:17.549Z,71.381
2017-03-18T20:00:14.895Z,71.623
2017-03-18T20:03:29.329Z,71.682
2017-03-18T20:06:27.193Z,71.986
2017-03-18T20:09:38.666Z,72.038
2017-03-18T20:12:43.728Z,71.964
2017-03-18T20:15:41.902Z,72.131
2017-03-18T20:18:55.582Z,72.682
2017-03-18T20:22:00.171Z,72.792
2017-03-18T20:28:08.432Z,73.266
2017-03-18T20:31:13.604Z,73.418
2017-03-18T20:34:18.857Z,73.394
2017-03-18T20:37:15.725Z,73.368
2017-03-18T20:43:34.814Z,73.853
2017-03-18T20:46:39.416Z,74.209
2017-03-18T20:49:44.495Z,74.136
2017-03-18T20:52:49.092Z,74.083
2017-03-18T20:58:51.945Z,74.438
2017-03-18T21:02:05.172Z,74.402
2017-03-18T21:05:10.180Z,74.601
2017-03-18T21:08:08.228Z,74.678
2017-03-18T21:11:16.531Z,74.706
2017-03-18T21:14:17.127Z,74.901
2017-03-18T21:17:24.610Z,74.996
2017-03-18T21:20:36.266Z,75.080
2017-03-18T21:23:41.260Z,75.235
2017-03-18T21:26:46.232Z,75.333
2017-03-18T21:29:49.406Z,75.043
2017-03-18T21:35:59.769Z,75.296
2017-03-18T21:39:03.763Z,75.430
2017-03-18T21:42:08.967Z,75.447
2017-03-18T21:45:13.535Z,75.127
2017-03-18T21:48:18.364Z,75.224
2017-03-18T21:51:22.900Z,75.272
2017-03-18T21:54:27.837Z,75.353
2017-03-18T21:57:32.709Z,75.717
2017-03-18T22:00:36.684Z,76.071
2017-03-18T22:03:41.818Z,76.182
2017-03-18T22:06:46.369Z,76.134
2017-03-18T22:09:50.790Z,76.147
2017-03-18T22:12:49.757Z,76.284
2017-03-18T22:15:53.905Z,76.261
2017-03-18T22:19:07.584Z,76.520
2017-03-18T22:22:10.585Z,76.687
2017-03-18T22:25:15.415Z,76.971
2017-03-18T22:28:20.450Z,76.935
2017-03-18T22:31:25.326Z,77.208
2017-03-18T22:34:30.245Z,77.267
2017-03-18T22:37:36.631Z,77.357
2017-03-18T22:40:36.834Z,77.788
2017-03-18T22:43:34.087Z,77.869
2017-03-18T22:46:49.353Z,77.914
2017-03-18T22:49:50.270Z,77.940
2017-03-18T22:52:55.729Z,77.894
2017-03-18T22:55:59.035Z,78.270
2017-03-18T22:59:04.067Z,78.337
2017-03-18T23:02:07.690Z,78.323
2017-03-18T23:05:12.549Z,78.341
2017-03-18T23:11:13.975Z,78.612
2017-03-18T23:14:28.124Z,78.800
2017-03-18T23:17:28.950Z,78.898
2017-03-18T23:20:33.662Z,78.999
2017-03-18T23:23:36.592Z,79.187
2017-03-18T23:26:33.792Z,79.343
2017-03-18T23:29:45.876Z,79.197
2017-03-18T23:38:53.546Z,79.408
2017-03-18T23:42:07.674Z,79.427
2017-03-18T23:45:10.924Z,79.411
2017-03-18T23:48:15.682Z,79.654
2017-03-18T23:54:26.034Z,79.972
2017-03-18T23:57:31.162Z,79.745
